createdAt,value
2022-11-15T00:01:24.224Z,10.34
2022-11-15T00:03:53.564Z,10.42
2022-11-15T00:06:20.364Z,10.35
2022-11-15T00:08:46.783Z,10.56
2022-11-15T00:11:13.716Z,10.27
2022-11-15T00:13:40.542Z,10.30
2022-11-15T00:16:07.139Z,10.17
2022-11-15T00:18:33.571Z,10.03
2022-11-15T00:21:08.919Z,10.22
2022-11-15T00:23:35.478Z,10.19
2022-11-15T00:26:02.072Z,10.02
2022-11-15T00:28:28.653Z,10.41
2022-11-15T00:30:55.194Z,10.50
2022-11-15T00:33:21.665Z,10.14
2022-11-15T00:35:48.125Z,10.24
2022-11-15T00:38:14.556Z,10.40
2022-11-15T00:40:41.242Z,10.26
2022-11-15T00:43:07.709Z,10.52
2022-11-15T00:45:34.143Z,10.10
2022-11-15T00:48:00.592Z,10.35
2022-11-15T00:50:27.030Z,10.48
2022-11-15T00:52:53.471Z,10.18
2022-11-15T00:55:20.246Z,10.18
2022-11-15T00:57:47.820Z,10.26
2022-11-15T01:00:14.676Z,10.36
2022-11-15T01:02:41.133Z,10.30
2022-11-15T01:05:08.495Z,10.27
2022-11-15T01:07:35.056Z,10.31
2022-11-15T01:10:01.647Z,10.39
2022-11-15T01:12:28.173Z,10.21
2022-11-15T01:14:54.615Z,10.22
2022-11-15T01:17:21.308Z,10.25
2022-11-15T01:19:47.757Z,10.32
2022-11-15T01:22:14.297Z,9.90
2022-11-15T01:24:40.823Z,9.64
2022-11-15T01:27:07.437Z,9.71
2022-11-15T01:29:33.936Z,9.67
2022-11-15T01:32:00.443Z,9.59
2022-11-15T01:34:26.991Z,9.66
2022-11-15T01:36:56.333Z,9.87
2022-11-15T01:39:22.756Z,9.96
2022-11-15T01:41:49.322Z,9.92
2022-11-15T01:44:34.380Z,10.00
2022-11-15T01:47:04.132Z,10.16
2022-11-15T01:49:33.587Z,10.16
2022-11-15T01:52:03.163Z,10.16
2022-11-15T01:54:30.343Z,10.18
2022-11-15T01:57:07.226Z,10.12
2022-11-15T01:59:34.515Z,10.09
2022-11-15T02:02:01.217Z,9.75
2022-11-15T02:04:33.738Z,10.09
2022-11-15T02:07:02.827Z,10.16
2022-11-15T02:09:30.098Z,10.15
2022-11-15T02:11:57.442Z,10.18
2022-11-15T02:14:26.373Z,10.07
2022-11-15T02:17:02.719Z,10.21
2022-11-15T02:19:32.200Z,10.16
2022-11-15T02:22:20.208Z,10.27
2022-11-15T02:25:04.415Z,10.02
2022-11-15T02:27:54.721Z,10.00
2022-11-15T02:30:38.930Z,10.02
2022-11-15T02:33:14.393Z,10.01
2022-11-15T02:36:03.570Z,10.03
2022-11-15T02:38:53.260Z,10.09
2022-11-15T02:41:28.782Z,10.17
2022-11-15T02:44:03.440Z,9.93
2022-11-15T02:46:51.299Z,10.18
2022-11-15T02:49:18.654Z,10.03
2022-11-15T02:51:47.631Z,9.92
2022-11-15T02:54:34.002Z,9.93
2022-11-15T02:57:08.400Z,10.07
2022-11-15T02:59:54.432Z,9.91
2022-11-15T03:02:23.723Z,10.02
2022-11-15T03:04:58.571Z,10.02
2022-11-15T03:07:51.393Z,10.44
2022-11-15T03:10:23.996Z,10.37
2022-11-15T03:12:55.147Z,10.27
2022-11-15T03:15:36.692Z,10.20
2022-11-15T03:18:09.173Z,10.62
2022-11-15T03:20:37.415Z,10.76
2022-11-15T03:23:10.714Z,10.73
2022-11-15T03:25:42.127Z,10.83
2022-11-15T03:28:13.787Z,10.79
2022-11-15T03:30:41.145Z,10.76
2022-11-15T03:33:09.771Z,10.74
2022-11-15T03:35:43.864Z,10.68
2022-11-15T03:38:14.818Z,10.76
2022-11-15T03:40:45.496Z,10.83
2022-11-15T03:43:35.083Z,10.69
2022-11-15T03:46:20.012Z,10.71
2022-11-15T03:49:07.240Z,10.75
2022-11-15T03:51:33.723Z,10.87
2022-11-15T03:54:00.158Z,10.72
2022-11-15T03:56:26.579Z,10.80
2022-11-15T03:58:53.084Z,10.82
2022-11-15T04:01:19.576Z,10.82
2022-11-15T04:03:46.265Z,10.79
2022-11-15T04:06:12.691Z,10.75
2022-11-15T04:08:39.173Z,10.62
2022-11-15T04:11:05.590Z,10.68
2022-11-15T04:13:32.316Z,10.78
2022-11-15T04:15:58.955Z,10.68
2022-11-15T04:18:25.442Z,10.11
2022-11-15T04:21:10.238Z,10.64
2022-11-15T04:23:55.051Z,10.60
2022-11-15T04:26:24.003Z,10.75
2022-11-15T04:29:09.052Z,10.68
2022-11-15T04:31:35.527Z,10.72
2022-11-15T04:34:02.008Z,10.21
2022-11-15T04:36:47.009Z,10.12
2022-11-15T04:39:13.452Z,10.51
2022-11-15T04:41:39.900Z,10.37
2022-11-15T04:44:06.327Z,10.40
2022-11-15T04:46:32.759Z,10.28
2022-11-15T04:48:59.533Z,10.48
2022-11-15T04:51:26.576Z,10.57
2022-11-15T04:53:53.534Z,10.57
2022-11-15T04:56:20.316Z,10.57
2022-11-15T04:58:49.892Z,10.66
2022-11-15T05:01:16.804Z,10.65
2022-11-15T05:04:02.381Z,10.82
2022-11-15T05:06:29.503Z,10.83
2022-11-15T05:08:56.895Z,10.86
2022-11-15T05:11:23.789Z,10.84
2022-11-15T05:13:50.300Z,10.83
2022-11-15T05:16:16.760Z,10.86
2022-11-15T05:18:43.185Z,10.95
2022-11-15T05:21:15.668Z,10.59
2022-11-15T05:23:42.219Z,10.86
2022-11-15T05:26:09.794Z,10.64
2022-11-15T05:28:37.499Z,10.94
2022-11-15T05:31:05.008Z,10.94
2022-11-15T05:33:32.675Z,10.89
2022-11-15T05:36:05.789Z,11.00
2022-11-15T05:38:32.535Z,10.94
2022-11-15T05:41:01.083Z,11.02
2022-11-15T05:43:29.044Z,11.06
2022-11-15T05:45:55.791Z,10.85
2022-11-15T05:48:22.217Z,10.85
2022-11-15T05:50:48.969Z,10.79
2022-11-15T05:53:18.529Z,10.77
2022-11-15T05:55:45.261Z,10.75
2022-11-15T05:58:12.083Z,10.52
2022-11-15T06:00:38.611Z,10.67
2022-11-15T06:03:05.031Z,10.78
2022-11-15T06:05:31.512Z,10.67
2022-11-15T06:08:00.763Z,10.50
2022-11-15T06:10:27.240Z,10.51
2022-11-15T06:13:01.438Z,10.22
2022-11-15T06:15:28.026Z,10.37
2022-11-15T06:18:01.138Z,10.46
2022-11-15T06:20:29.344Z,10.35
2022-11-15T06:23:04.403Z,10.45
2022-11-15T06:25:31.809Z,10.56
2022-11-15T06:27:59.618Z,10.66
2022-11-15T06:30:27.118Z,10.51
2022-11-15T06:33:02.808Z,10.50
2022-11-15T06:35:30.571Z,10.57
2022-11-15T06:38:02.364Z,10.57
2022-11-15T06:40:28.821Z,10.48
2022-11-15T06:43:00.192Z,10.53
2022-11-15T06:45:27.313Z,10.51
2022-11-15T06:47:54.036Z,10.27
2022-11-15T06:50:20.616Z,10.13
2022-11-15T06:52:47.078Z,10.21
2022-11-15T06:55:13.812Z,10.38
2022-11-15T06:57:51.521Z,10.43
2022-11-15T07:00:20.493Z,10.45
2022-11-15T07:02:47.982Z,10.40
2022-11-15T07:05:15.463Z,10.24
2022-11-15T07:07:41.914Z,10.40
2022-11-15T07:10:09.335Z,10.51
2022-11-15T07:12:35.811Z,10.32
2022-11-15T07:15:02.292Z,10.28
2022-11-15T07:17:28.750Z,10.57
2022-11-15T07:19:55.184Z,10.46
2022-11-15T07:22:21.610Z,10.44
2022-11-15T07:24:48.062Z,10.18
2022-11-15T07:27:14.616Z,10.01
2022-11-15T07:29:41.290Z,10.07
2022-11-15T07:32:07.732Z,10.16
2022-11-15T07:34:34.192Z,10.39
2022-11-15T07:37:00.664Z,10.04
2022-11-15T07:39:27.164Z,10.15
2022-11-15T07:42:32.849Z,10.44
2022-11-15T07:44:59.279Z,10.45
2022-11-15T07:47:27.945Z,10.44
2022-11-15T07:49:54.429Z,10.45
2022-11-15T07:52:21.022Z,10.82
2022-11-15T07:54:47.457Z,10.95
2022-11-15T07:57:13.928Z,11.04
2022-11-15T07:59:40.428Z,11.10
2022-11-15T08:02:07.134Z,10.89
2022-11-15T08:04:33.730Z,11.86
2022-11-15T08:07:00.360Z,13.21
2022-11-15T08:09:26.902Z,14.69
2022-11-15T08:11:53.335Z,15.68
2022-11-15T08:14:19.768Z,16.41
2022-11-15T08:16:46.199Z,16.14
2022-11-15T08:19:12.703Z,17.10
2022-11-15T08:21:39.170Z,17.34
2022-11-15T08:24:06.062Z,16.89
2022-11-15T08:26:32.560Z,17.08
2022-11-15T08:28:59.008Z,16.91
2022-11-15T08:31:25.425Z,16.33
2022-11-15T08:33:51.963Z,16.12
2022-11-15T08:36:18.850Z,16.55
2022-11-15T08:38:45.301Z,16.41
2022-11-15T08:41:17.209Z,15.97
2022-11-15T08:43:43.650Z,15.89
2022-11-15T08:46:13.881Z,15.51
2022-11-15T08:48:40.343Z,15.17
2022-11-15T08:51:07.185Z,15.07
2022-11-15T08:53:35.129Z,15.01
2022-11-15T08:56:01.859Z,14.78
2022-11-15T08:58:28.274Z,14.42
2022-11-15T09:00:55.167Z,14.36
2022-11-15T09:03:21.631Z,14.26
2022-11-15T09:05:48.054Z,14.27
2022-11-15T09:08:40.843Z,14.30
2022-11-15T09:11:08.073Z,14.18
2022-11-15T09:13:34.841Z,14.20
2022-11-15T09:16:02.041Z,13.91
2022-11-15T09:18:28.641Z,14.03
2022-11-15T09:21:01.296Z,14.10
2022-11-15T09:23:27.826Z,13.89
2022-11-15T09:26:03.717Z,14.10
2022-11-15T09:28:31.452Z,14.16
2022-11-15T09:31:03.606Z,14.27
2022-11-15T09:33:30.847Z,14.42
2022-11-15T09:36:05.887Z,14.56
2022-11-15T09:38:33.590Z,15.10
2022-11-15T09:41:19.589Z,15.91
2022-11-15T09:44:10.742Z,16.13
2022-11-15T09:46:56.275Z,16.60
2022-11-15T09:49:23.522Z,16.86
2022-11-15T09:51:52.418Z,16.41
2022-11-15T09:54:52.609Z,15.61
2022-11-15T09:57:25.847Z,15.99
2022-11-15T10:00:45.871Z,15.88
2022-11-15T10:03:15.006Z,15.32
2022-11-15T10:05:48.079Z,15.09
2022-11-15T10:08:43.857Z,14.97
2022-11-15T10:14:03.648Z,14.80
2022-11-15T10:16:54.895Z,15.13
2022-11-15T10:19:43.662Z,15.10
2022-11-15T10:22:45.475Z,15.18
2022-11-15T10:25:22.630Z,14.90
2022-11-15T10:28:28.261Z,15.17
2022-11-15T10:30:57.608Z,15.15
2022-11-15T10:33:26.647Z,15.36
2022-11-15T10:36:16.105Z,15.22
2022-11-15T10:38:51.353Z,15.21
2022-11-15T10:41:27.724Z,15.28
2022-11-15T10:44:21.530Z,15.39
2022-11-15T10:46:55.449Z,15.37
2022-11-15T10:49:30.872Z,15.33
2022-11-15T10:52:02.189Z,14.95
2022-11-15T10:54:40.164Z,15.45
2022-11-15T10:57:16.541Z,15.39
2022-11-15T10:59:49.749Z,15.86
2022-11-15T11:02:48.394Z,15.52
2022-11-15T11:05:47.207Z,15.48
2022-11-15T11:08:16.822Z,15.58
2022-11-15T11:11:03.419Z,15.74
2022-11-15T11:13:33.366Z,15.94
2022-11-15T11:16:15.057Z,16.29
2022-11-15T11:18:44.464Z,16.13
2022-11-15T11:21:15.378Z,16.24
2022-11-15T11:23:48.427Z,16.39
2022-11-15T11:26:36.300Z,16.57
2022-11-15T11:29:20.900Z,16.52
2022-11-15T11:31:55.905Z,16.02
2022-11-15T11:34:40.697Z,16.35
2022-11-15T11:37:31.646Z,16.31
2022-11-15T11:40:10.604Z,16.42
2022-11-15T11:42:40.247Z,16.24
2022-11-15T11:45:47.327Z,16.37
2022-11-15T11:48:21.557Z,16.35
2022-11-15T11:50:49.368Z,16.44
2022-11-15T11:53:32.195Z,16.04
2022-11-15T11:56:04.427Z,16.28
2022-11-15T11:58:41.115Z,16.11
2022-11-15T12:01:23.095Z,16.32
2022-11-15T12:03:57.915Z,16.32
2022-11-15T12:06:41.458Z,16.27
2022-11-15T12:09:24.706Z,16.08
2022-11-15T12:12:09.438Z,16.20
2022-11-15T12:14:56.560Z,16.20
2022-11-15T12:17:26.477Z,16.51
2022-11-15T12:20:21.458Z,16.18
2022-11-15T12:23:13.633Z,16.30
2022-11-15T12:25:52.686Z,16.16
2022-11-15T12:28:36.602Z,16.05
2022-11-15T12:31:12.269Z,16.20
2022-11-15T12:33:42.306Z,15.94
2022-11-15T12:36:23.744Z,15.84
2022-11-15T12:39:00.339Z,16.08
2022-11-15T12:41:29.606Z,16.06
2022-11-15T12:43:57.045Z,16.12
2022-11-15T12:46:46.634Z,16.29
2022-11-15T12:49:42.150Z,16.31
2022-11-15T12:52:09.955Z,16.35
2022-11-15T12:54:37.443Z,16.64
2022-11-15T12:57:03.833Z,16.71
2022-11-15T12:59:50.046Z,16.60
2022-11-15T13:02:22.183Z,16.68
2022-11-15T13:04:49.203Z,16.58
2022-11-15T13:07:40.306Z,16.27
2022-11-15T13:10:12.794Z,16.50
2022-11-15T13:12:45.270Z,16.04
2022-11-15T13:15:14.753Z,15.73
2022-11-15T13:17:45.221Z,16.13
2022-11-15T13:20:11.620Z,16.07
2022-11-15T13:22:59.988Z,16.20
2022-11-15T13:25:51.329Z,16.33
2022-11-15T13:28:17.723Z,16.23
2022-11-15T13:30:54.880Z,16.17
2022-11-15T13:33:47.665Z,16.16
2022-11-15T13:36:20.833Z,16.16
2022-11-15T13:39:05.787Z,16.32
2022-11-15T13:41:37.450Z,16.11
2022-11-15T13:44:05.076Z,16.02
2022-11-15T13:46:36.113Z,16.29
2022-11-15T13:49:05.480Z,16.04
2022-11-15T13:51:38.089Z,15.96
2022-11-15T13:54:07.282Z,16.32
2022-11-15T13:56:35.009Z,15.42
2022-11-15T13:59:16.526Z,16.01
2022-11-15T14:01:44.325Z,16.03
2022-11-15T14:04:16.200Z,16.26
2022-11-15T14:06:50.100Z,16.22
2022-11-15T14:09:37.768Z,16.31
2022-11-15T14:12:24.867Z,16.09
2022-11-15T14:14:52.146Z,16.41
2022-11-15T14:17:30.769Z,16.49
2022-11-15T14:20:00.802Z,16.09
2022-11-15T14:22:29.591Z,15.99
2022-11-15T14:25:07.934Z,15.98
2022-11-15T14:27:35.029Z,15.84
2022-11-15T14:30:01.784Z,15.72
2022-11-15T14:32:31.465Z,15.62
2022-11-15T14:35:00.627Z,15.88
2022-11-15T14:37:35.888Z,15.53
2022-11-15T14:40:04.992Z,15.86
2022-11-15T14:42:31.882Z,16.00
2022-11-15T14:44:58.616Z,16.01
2022-11-15T14:47:25.038Z,15.84
2022-11-15T14:49:51.551Z,15.67
2022-11-15T14:52:32.607Z,15.66
2022-11-15T14:55:00.276Z,15.50
2022-11-15T14:57:26.758Z,15.67
2022-11-15T14:59:53.262Z,15.50
2022-11-15T15:02:25.022Z,15.38
2022-11-15T15:04:51.809Z,15.49
2022-11-15T15:07:18.986Z,15.25
2022-11-15T15:09:46.149Z,15.46
2022-11-15T15:12:20.611Z,15.34
2022-11-15T15:14:49.329Z,15.50
2022-11-15T15:17:16.757Z,15.60
2022-11-15T15:19:43.320Z,15.26
2022-11-15T15:22:18.137Z,15.18
2022-11-15T15:24:45.941Z,15.27
2022-11-15T15:27:13.147Z,15.18
2022-11-15T15:29:40.004Z,15.28
2022-11-15T15:32:06.942Z,15.22
2022-11-15T15:34:33.432Z,15.22
2022-11-15T15:37:18.256Z,15.11
2022-11-15T15:39:44.745Z,15.22
2022-11-15T15:42:11.211Z,15.20
2022-11-15T15:44:37.641Z,14.98
2022-11-15T15:47:13.290Z,14.82
2022-11-15T15:49:39.704Z,15.06
2022-11-15T15:52:06.176Z,15.10
2022-11-15T15:54:32.643Z,14.88
2022-11-15T15:56:59.157Z,15.03
2022-11-15T15:59:25.600Z,14.91
2022-11-15T16:01:52.029Z,14.88
2022-11-15T16:04:18.435Z,14.68
2022-11-15T16:06:47.870Z,14.60
2022-11-15T16:09:17.058Z,14.57
2022-11-15T16:11:46.423Z,14.45
2022-11-15T16:14:13.227Z,14.64
2022-11-15T16:16:39.900Z,14.33
2022-11-15T16:19:06.319Z,14.68
2022-11-15T16:21:32.792Z,14.65
2022-11-15T16:23:59.222Z,14.45
2022-11-15T16:26:28.344Z,14.36
2022-11-15T16:28:55.239Z,14.36
2022-11-15T16:31:24.474Z,14.44
2022-11-15T16:33:50.906Z,14.51
2022-11-15T16:36:29.933Z,14.66
2022-11-15T16:38:57.049Z,14.82
2022-11-15T16:41:23.454Z,14.55
2022-11-15T16:43:49.990Z,14.60
2022-11-15T16:46:22.146Z,15.04
2022-11-15T16:48:49.478Z,14.85
2022-11-15T16:51:16.614Z,14.64
2022-11-15T16:53:43.556Z,14.59
2022-11-15T16:56:30.874Z,14.69
2022-11-15T16:58:59.106Z,14.57
2022-11-15T17:01:27.931Z,14.88
2022-11-15T17:03:55.055Z,14.72
2022-11-15T17:06:22.339Z,14.57
2022-11-15T17:08:48.771Z,14.54
2022-11-15T17:11:20.541Z,14.79
2022-11-15T17:13:48.687Z,15.21
2022-11-15T17:16:17.656Z,14.74
2022-11-15T17:18:47.510Z,14.58
2022-11-15T17:21:16.477Z,14.48
2022-11-15T17:23:43.535Z,14.55
2022-11-15T17:26:28.723Z,14.37
2022-11-15T17:28:57.151Z,14.80
2022-11-15T17:31:23.843Z,14.38
2022-11-15T17:33:50.295Z,14.23
2022-11-15T17:36:16.745Z,14.56
2022-11-15T17:38:43.334Z,14.52
2022-11-15T17:41:14.374Z,14.43
2022-11-15T17:43:41.207Z,14.46
2022-11-15T17:46:10.961Z,14.92
2022-11-15T17:48:37.613Z,14.60
2022-11-15T17:51:06.699Z,14.60
2022-11-15T17:53:35.563Z,14.35
2022-11-15T17:56:07.919Z,14.46
2022-11-15T17:58:35.103Z,14.46
2022-11-15T18:01:22.655Z,14.50
2022-11-15T18:03:49.926Z,14.63
2022-11-15T18:06:18.167Z,14.75
2022-11-15T18:08:46.610Z,14.40
2022-11-15T18:11:12.969Z,14.45
2022-11-15T18:13:42.064Z,13.98
2022-11-15T18:16:14.548Z,13.94
2022-11-15T18:18:42.211Z,14.23
2022-11-15T18:21:12.248Z,14.64
2022-11-15T18:23:38.764Z,14.36
2022-11-15T18:26:07.566Z,14.19
2022-11-15T18:28:39.145Z,14.39
2022-11-15T18:31:16.840Z,14.71
2022-11-15T18:33:43.849Z,14.59
2022-11-15T18:36:13.059Z,14.53
2022-11-15T18:38:39.847Z,14.44
2022-11-15T18:41:19.420Z,14.44
2022-11-15T18:43:46.917Z,14.42
2022-11-15T18:46:15.351Z,14.28
2022-11-15T18:48:43.381Z,14.35
2022-11-15T18:51:15.072Z,14.64
2022-11-15T18:53:42.772Z,14.29
2022-11-15T18:56:28.704Z,14.37
2022-11-15T18:58:57.600Z,14.50
2022-11-15T19:01:30.081Z,14.52
2022-11-15T19:03:58.263Z,14.58
2022-11-15T19:06:27.150Z,14.68
2022-11-15T19:08:56.343Z,14.35
2022-11-15T19:11:26.966Z,14.86
2022-11-15T19:13:59.849Z,14.60
2022-11-15T19:16:27.745Z,14.83
2022-11-15T19:18:58.935Z,14.35
2022-11-15T19:21:26.691Z,14.09
2022-11-15T19:23:54.214Z,14.63
2022-11-15T19:26:22.831Z,14.56
2022-11-15T19:29:02.252Z,14.53
2022-11-15T19:31:31.509Z,14.39
2022-11-15T19:34:00.039Z,14.75
2022-11-15T19:36:29.079Z,14.44
2022-11-15T19:38:56.158Z,14.45
2022-11-15T19:41:24.617Z,14.51
2022-11-15T19:43:52.379Z,14.60
2022-11-15T19:46:21.818Z,14.27
2022-11-15T19:48:48.524Z,14.68
2022-11-15T19:51:23.852Z,14.25
2022-11-15T19:53:53.434Z,14.31
2022-11-15T19:56:20.869Z,14.32
2022-11-15T19:58:55.033Z,14.28
2022-11-15T20:01:22.849Z,14.06
2022-11-15T20:03:50.771Z,14.38
2022-11-15T20:06:19.973Z,14.57
2022-11-15T20:08:47.934Z,14.10
2022-11-15T20:11:15.580Z,14.10
2022-11-15T20:13:43.068Z,14.40
2022-11-15T20:16:18.798Z,14.19
2022-11-15T20:18:45.567Z,14.44
2022-11-15T20:21:12.471Z,14.29
2022-11-15T20:23:39.267Z,14.15
2022-11-15T20:26:06.582Z,14.24
2022-11-15T20:28:33.288Z,14.05
2022-11-15T20:31:01.394Z,14.20
2022-11-15T20:33:28.996Z,13.97
2022-11-15T20:35:55.769Z,14.24
2022-11-15T20:38:23.098Z,14.17
2022-11-15T20:40:53.596Z,14.40
2022-11-15T20:43:22.488Z,14.40
2022-11-15T20:45:50.405Z,14.29
2022-11-15T20:48:17.607Z,14.32
2022-11-15T20:50:45.938Z,14.16
2022-11-15T20:53:14.900Z,14.25
2022-11-15T20:55:50.885Z,14.10
2022-11-15T20:58:17.784Z,14.32
2022-11-15T21:00:45.967Z,14.30
2022-11-15T21:03:13.975Z,14.61
2022-11-15T21:05:42.646Z,14.12
2022-11-15T21:08:10.505Z,14.44
2022-11-15T21:10:55.488Z,14.11
2022-11-15T21:13:22.625Z,14.08
2022-11-15T21:15:49.120Z,14.44
2022-11-15T21:18:15.912Z,14.55
2022-11-15T21:20:42.666Z,14.61
2022-11-15T21:23:09.666Z,14.75
2022-11-15T21:25:36.120Z,14.61
2022-11-15T21:28:02.923Z,14.69
2022-11-15T21:30:29.842Z,15.00
2022-11-15T21:32:56.358Z,14.85
2022-11-15T21:35:23.732Z,15.03
2022-11-15T21:37:56.115Z,14.95
2022-11-15T21:40:23.456Z,14.83
2022-11-15T21:42:49.955Z,14.28
2022-11-15T21:45:16.530Z,14.49
2022-11-15T21:47:46.140Z,14.11
2022-11-15T21:50:13.586Z,14.24
2022-11-15T21:52:40.621Z,14.20
2022-11-15T21:55:08.368Z,14.12
2022-11-15T21:57:34.911Z,14.08
2022-11-15T22:00:19.812Z,13.72
2022-11-15T22:02:46.227Z,13.92
2022-11-15T22:05:14.090Z,13.81
2022-11-15T22:07:40.554Z,13.71
2022-11-15T22:10:07.280Z,13.83
2022-11-15T22:12:33.734Z,13.71
2022-11-15T22:15:00.269Z,13.83
2022-11-15T22:17:46.722Z,13.78
2022-11-15T22:20:42.527Z,13.98
2022-11-15T22:23:00.125Z,14.08
2022-11-15T22:25:27.561Z,13.68
2022-11-15T22:27:54.485Z,13.56
2022-11-15T22:30:21.240Z,13.57
2022-11-15T22:32:47.817Z,13.82
2022-11-15T22:35:14.874Z,13.68
2022-11-15T22:37:41.981Z,13.39
2022-11-15T22:40:09.467Z,13.74
2022-11-15T22:42:36.007Z,13.71
2022-11-15T22:45:02.480Z,13.85
2022-11-15T22:47:28.955Z,13.65
2022-11-15T22:49:55.413Z,13.69
2022-11-15T22:52:21.882Z,13.45
2022-11-15T22:54:48.385Z,13.91
2022-11-15T22:57:14.845Z,13.86
2022-11-15T22:59:42.406Z,13.68
2022-11-15T23:02:08.910Z,13.64
2022-11-15T23:04:35.395Z,13.73
2022-11-15T23:07:01.862Z,13.42
2022-11-15T23:09:28.399Z,13.35
2022-11-15T23:12:13.284Z,13.88
2022-11-15T23:14:39.841Z,13.74
2022-11-15T23:17:06.287Z,14.05
2022-11-15T23:19:32.779Z,13.96
2022-11-15T23:22:17.863Z,13.78
2022-11-15T23:24:44.318Z,14.19
2022-11-15T23:27:15.064Z,13.96
2022-11-15T23:30:00.158Z,14.03
2022-11-15T23:32:44.903Z,14.01
2022-11-15T23:35:11.351Z,13.78
2022-11-15T23:37:37.798Z,14.12
2022-11-15T23:40:05.282Z,14.18
2022-11-15T23:42:31.812Z,13.94
2022-11-15T23:44:58.338Z,13.88
2022-11-15T23:47:25.022Z,14.00
2022-11-15T23:49:52.323Z,14.13
2022-11-15T23:52:18.892Z,14.36
2022-11-15T23:54:45.348Z,14.30
2022-11-15T23:57:12.455Z,14.41
2022-11-15T23:59:43.683Z,14.55
